Time;durP1;ratioP1;P1;durP2;ratioP2;P2;SDS_P1;SDS_P2;PMS_P1;PMS_P2;Temp;Humidity;BMP_temperature;BMP_pressure;BME280_temperature;BME280_humidity;BME280_pressure;Samples;Min_cycle;Max_cycle;Signal;HPM_P1;HPM_P2
2023/03/28 00:00:49;;;;;;;5.00;1.90;;;;;;;1.17;87.81;101457.13;5025486;28;20620;-76
2023/03/28 00:03:17;;;;;;;5.33;1.73;;;;;;;1.35;87.00;101454.88;5017947;28;20301;-75
2023/03/28 00:05:47;;;;;;;3.17;1.60;;;;;;;1.22;87.34;101459.28;5024487;28;20773;-75
2023/03/28 00:08:16;;;;;;;8.00;1.70;;;;;;;1.18;88.10;101464.16;5024367;28;20602;-76
2023/03/28 00:10:44;;;;;;;5.33;1.80;;;;;;;1.20;87.76;101473.94;5023565;28;20248;-76
2023/03/28 00:13:12;;;;;;;5.50;1.50;;;;;;;1.27;86.86;101469.13;5024557;28;20700;-75
2023/03/28 00:15:41;;;;;;;3.50;1.80;;;;;;;1.33;86.74;101472.16;5024874;28;20254;-76
2023/03/28 00:18:10;;;;;;;4.10;1.70;;;;;;;1.16;87.57;101469.28;5022073;28;20199;-76
2023/03/28 00:20:44;;;;;;;8.07;1.83;;;;;;;1.14;87.90;101476.09;5025345;28;20209;-75
2023/03/28 00:23:11;;;;;;;2.20;1.60;;;;;;;1.09;87.95;101482.72;5017397;28;20202;-76
2023/03/28 00:25:40;;;;;;;5.03;1.70;;;;;;;1.00;88.88;101481.19;5020217;28;20315;-76
2023/03/28 00:28:07;;;;;;;1.97;1.50;;;;;;;0.99;88.66;101469.84;5025938;28;20222;-76
2023/03/28 00:30:33;;;;;;;6.83;1.60;;;;;;;1.14;87.89;101488.22;5044044;28;20259;-76
2023/03/28 00:33:00;;;;;;;5.67;1.70;;;;;;;1.11;87.64;101485.41;5028409;28;20252;-76
2023/03/28 00:35:26;;;;;;;6.10;1.90;;;;;;;1.06;88.23;101481.59;5029114;28;20212;-76
2023/03/28 00:37:56;;;;;;;1.77;1.63;;;;;;;1.12;87.86;101490.75;5027060;28;20226;-75
2023/03/28 00:40:25;;;;;;;4.13;1.80;;;;;;;1.10;88.21;101496.66;5024014;28;20206;-75
2023/03/28 00:42:54;;;;;;;3.20;1.60;;;;;;;1.02;88.45;101493.53;5025089;28;20218;-75
2023/03/28 00:45:20;;;;;;;5.33;1.57;;;;;;;1.12;88.08;101497.66;5029392;28;20203;-76
2023/03/28 00:47:54;;;;;;;4.10;1.60;;;;;;;1.11;87.90;101493.25;5021793;28;20194;-75
2023/03/28 00:50:36;;;;;;;3.50;1.50;;;;;;;1.02;88.32;101497.84;5024781;28;20584;-75
2023/03/28 00:53:12;;;;;;;5.13;1.60;;;;;;;0.82;88.99;101502.59;5026219;28;20204;-75
2023/03/28 00:55:45;;;;;;;5.87;1.67;;;;;;;0.70;89.76;101500.78;5028961;28;20747;-76
2023/03/28 00:58:18;;;;;;;5.10;1.90;;;;;;;0.56;90.66;101511.16;5024547;28;20194;-76
2023/03/28 01:00:45;;;;;;;3.47;1.60;;;;;;;0.55;91.26;101504.16;5023631;28;20306;-76
2023/03/28 01:03:14;;;;;;;3.20;1.60;;;;;;;0.39;91.35;101503.81;5023795;28;20260;-76
2023/03/28 01:05:42;;;;;;;2.70;1.90;;;;;;;0.29;92.92;101510.09;5020363;28;20273;-76
2023/03/28 01:08:27;;;;;;;3.77;1.53;;;;;;;0.19;93.05;101506.72;5023474;28;20253;-76
2023/03/28 01:10:55;;;;;;;3.90;1.60;;;;;;;0.24;92.80;101494.91;5026542;28;20198;-76
2023/03/28 01:13:28;;;;;;;4.03;1.63;;;;;;;0.22;93.64;101509.53;5025688;28;20670;-76
2023/03/28 01:15:55;;;;;;;4.90;1.93;;;;;;;0.10;93.91;101503.44;5023371;28;20200;-76
2023/03/28 01:18:22;;;;;;;3.97;1.70;;;;;;;-0.02;94.44;101504.34;5022598;28;20235;-76
2023/03/28 01:20:51;;;;;;;4.30;2.00;;;;;;;-0.09;95.31;101506.38;5028389;28;20216;-76
2023/03/28 01:23:43;;;;;;;5.20;1.87;;;;;;;-0.14;95.34;101503.44;5022976;28;20194;-76
2023/03/28 01:26:48;;;;;;;3.00;1.60;;;;;;;-0.32;95.66;101499.50;5024943;28;20201;-76
2023/03/28 01:29:39;;;;;;;5.57;1.90;;;;;;;-0.37;96.51;101511.28;5021676;28;20214;-76
2023/03/28 01:32:24;;;;;;;3.47;1.87;;;;;;;-0.49;97.54;101518.13;5020079;28;20701;-76
2023/03/28 01:35:18;;;;;;;3.10;1.57;;;;;;;-0.69;98.00;101517.53;5025234;28;20291;-76
2023/03/28 01:37:57;;;;;;;3.33;2.10;;;;;;;-0.71;99.03;101518.22;5018749;28;20203;-76
2023/03/28 01:40:26;;;;;;;8.27;1.80;;;;;;;-0.71;99.22;101516.53;5029951;28;20223;-76
2023/03/28 01:42:59;;;;;;;5.30;1.73;;;;;;;-0.79;99.38;101516.75;5028161;28;20228;-76
2023/03/28 01:45:32;;;;;;;4.23;1.60;;;;;;;-0.83;99.82;101518.16;5021299;28;21883;-77
2023/03/28 01:48:11;;;;;;;3.47;1.83;;;;;;;-0.85;100.00;101519.75;5027201;28;20234;-76
2023/03/28 01:50:45;;;;;;;4.07;1.70;;;;;;;-0.92;100.00;101519.16;5030158;28;20208;-76
2023/03/28 01:53:17;;;;;;;3.17;2.10;;;;;;;-0.96;100.00;101518.94;5023198;28;20239;-76
2023/03/28 01:56:03;;;;;;;4.30;1.83;;;;;;;-1.04;100.00;101527.84;5029882;28;20679;-76
2023/03/28 01:58:46;;;;;;;4.17;1.70;;;;;;;-1.16;100.00;101533.78;5025433;28;20199;-76
2023/03/28 02:01:23;;;;;;;2.53;1.40;;;;;;;-1.28;100.00;101532.00;5019791;28;20221;-76
2023/03/28 02:03:54;;;;;;;6.33;1.93;;;;;;;-1.37;100.00;101538.19;5023080;28;20200;-76
2023/03/28 02:06:23;;;;;;;4.50;1.53;;;;;;;-1.38;100.00;101538.97;5028965;28;20201;-76
2023/03/28 02:08:52;;;;;;;3.90;1.63;;;;;;;-1.38;100.00;101541.56;5027782;28;20217;-76
2023/03/28 02:11:19;;;;;;;3.83;1.87;;;;;;;-1.29;100.00;101529.28;5022283;28;20224;-76
2023/03/28 02:13:55;;;;;;;3.53;1.70;;;;;;;-1.33;100.00;101537.63;5021264;28;20224;-76
2023/03/28 02:16:23;;;;;;;7.47;1.80;;;;;;;-1.34;100.00;101528.03;5027056;28;20250;-76
2023/03/28 02:18:54;;;;;;;6.13;2.30;;;;;;;-1.23;100.00;101527.16;5022179;28;20253;-76
2023/03/28 02:21:35;;;;;;;5.50;1.70;;;;;;;-1.14;100.00;101538.31;5024337;28;20221;-75
2023/03/28 02:24:01;;;;;;;3.90;1.70;;;;;;;-1.26;100.00;101522.63;5026811;28;20235;-75
2023/03/28 02:26:28;;;;;;;1.60;1.30;;;;;;;-1.22;100.00;101525.47;5028592;28;20240;-76
2023/03/28 02:28:57;;;;;;;2.87;1.90;;;;;;;-1.32;100.00;101527.34;5025214;28;20211;-76
2023/03/28 02:31:23;;;;;;;4.90;1.63;;;;;;;-1.37;100.00;101527.78;5028153;28;20223;-75
2023/03/28 02:33:51;;;;;;;3.23;2.00;;;;;;;-1.50;100.00;101520.72;5025184;28;20729;-75
2023/03/28 02:36:33;;;;;;;4.80;1.93;;;;;;;-1.41;100.00;101524.03;5028240;28;20622;-75
2023/03/28 02:39:15;;;;;;;4.27;1.70;;;;;;;-1.32;100.00;101513.47;5022365;28;20649;-76
2023/03/28 02:42:02;;;;;;;4.47;1.70;;;;;;;-1.13;100.00;101521.03;5027143;28;20263;-75
2023/03/28 02:44:40;;;;;;;5.97;2.20;;;;;;;-1.11;100.00;101519.44;5024104;28;20660;-75
2023/03/28 02:47:20;;;;;;;4.03;1.90;;;;;;;-1.12;100.00;101517.63;5027869;28;20199;-75
2023/03/28 02:50:03;;;;;;;4.53;1.70;;;;;;;-1.14;100.00;101519.22;5022563;28;20575;-75
2023/03/28 02:52:50;;;;;;;7.00;1.77;;;;;;;-1.17;100.00;101518.97;5022882;28;20238;-75
2023/03/28 02:55:33;;;;;;;4.70;1.90;;;;;;;-1.38;100.00;101513.00;5024464;28;20203;-75
2023/03/28 02:58:13;;;;;;;7.97;1.70;;;;;;;-1.50;100.00;101518.13;5024371;28;20570;-75
2023/03/28 03:00:39;;;;;;;6.63;1.90;;;;;;;-1.60;100.00;101515.59;5023937;28;20686;-75
2023/03/28 03:03:09;;;;;;;4.83;2.00;;;;;;;-1.56;100.00;101519.34;5020066;28;20840;-75
2023/03/28 03:05:36;;;;;;;4.10;1.70;;;;;;;-1.65;100.00;101522.09;5022521;28;20232;-75
2023/03/28 03:08:03;;;;;;;4.27;1.90;;;;;;;-1.82;100.00;101512.06;5023687;28;20239;-75
2023/03/28 03:10:29;;;;;;;5.53;2.10;;;;;;;-1.85;100.00;101520.50;5027526;28;20231;-75
2023/03/28 03:12:56;;;;;;;2.80;1.70;;;;;;;-1.97;100.00;101519.53;5025313;28;20788;-75
2023/03/28 03:15:22;;;;;;;4.27;1.80;;;;;;;-2.07;100.00;101509.16;5027904;28;20200;-75
2023/03/28 03:17:48;;;;;;;3.40;1.50;;;;;;;-2.00;100.00;101520.19;5022830;28;20626;-76
2023/03/28 03:20:15;;;;;;;3.23;1.90;;;;;;;-1.98;100.00;101515.13;5026813;28;20460;-75
2023/03/28 03:22:41;;;;;;;4.70;1.90;;;;;;;-1.86;100.00;101515.19;5021709;28;20636;-76
2023/03/28 03:25:08;;;;;;;5.40;2.00;;;;;;;-1.81;100.00;101519.97;5025298;28;20208;-75
2023/03/28 03:27:38;;;;;;;2.87;2.00;;;;;;;-1.90;100.00;101525.31;5027020;28;20295;-76
2023/03/28 03:30:05;;;;;;;3.93;2.00;;;;;;;-1.85;100.00;101523.09;5020648;28;20240;-75
2023/03/28 03:32:32;;;;;;;6.17;2.17;;;;;;;-1.70;100.00;101520.81;5018225;28;20230;-75
2023/03/28 03:34:58;;;;;;;5.40;1.70;;;;;;;-1.87;100.00;101521.16;5017065;28;20200;-74
2023/03/28 03:37:25;;;;;;;3.47;2.20;;;;;;;-1.70;100.00;101528.59;5028106;28;20319;-76
2023/03/28 03:39:51;;;;;;;5.37;2.37;;;;;;;-1.65;100.00;101532.47;5021015;28;20192;-75
2023/03/28 03:42:17;;;;;;;3.93;1.90;;;;;;;-1.74;100.00;101527.47;5025585;28;20215;-75
2023/03/28 03:44:44;;;;;;;3.97;1.70;;;;;;;-1.72;100.00;101533.69;5025105;28;20639;-75
2023/03/28 03:47:10;;;;;;;3.83;2.30;;;;;;;-1.69;100.00;101533.91;5022370;28;20203;-75
2023/03/28 03:49:37;;;;;;;7.37;2.70;;;;;;;-1.78;100.00;101534.88;5025474;28;20666;-75
2023/03/28 03:52:04;;;;;;;5.00;2.07;;;;;;;-1.79;100.00;101530.47;5020243;28;20782;-75
2023/03/28 03:54:30;;;;;;;2.73;1.73;;;;;;;-1.66;100.00;101535.84;5022824;28;20199;-74
2023/03/28 03:56:56;;;;;;;6.77;2.03;;;;;;;-1.59;100.00;101539.09;5023230;28;20203;-75
2023/03/28 03:59:23;;;;;;;5.23;2.20;;;;;;;-1.71;100.00;101545.88;5027073;28;20192;-75
2023/03/28 04:01:49;;;;;;;2.77;1.67;;;;;;;-1.68;100.00;101535.72;5018051;28;20284;-75
2023/03/28 04:04:16;;;;;;;4.70;1.83;;;;;;;-1.73;100.00;101543.94;5024256;28;20277;-75
2023/03/28 04:06:42;;;;;;;8.80;2.27;;;;;;;-1.78;100.00;101548.75;5030558;28;20564;-74
2023/03/28 04:09:09;;;;;;;5.70;2.20;;;;;;;-1.86;100.00;101546.34;5020187;28;20212;-75
2023/03/28 04:11:35;;;;;;;5.53;2.10;;;;;;;-1.98;100.00;101543.66;5027215;28;20219;-74
2023/03/28 04:14:01;;;;;;;5.60;2.00;;;;;;;-2.06;100.00;101544.69;5029018;28;20191;-75
2023/03/28 04:16:28;;;;;;;3.37;1.80;;;;;;;-2.25;100.00;101543.22;5025037;28;20200;-74
2023/03/28 04:19:06;;;;;;;6.20;1.90;;;;;;;-2.36;100.00;101550.88;5030545;28;20776;-74
2023/03/28 04:21:34;;;;;;;2.07;1.70;;;;;;;-2.46;100.00;101550.88;5030744;28;20226;-76
2023/03/28 04:24:00;;;;;;;4.80;1.90;;;;;;;-2.54;100.00;101543.38;5025905;28;20219;-74
2023/03/28 04:26:28;;;;;;;5.33;1.87;;;;;;;-2.50;100.00;101552.31;5030932;28;20200;-75
2023/03/28 04:28:56;;;;;;;3.57;1.73;;;;;;;-2.44;100.00;101547.63;5025875;28;20227;-74
2023/03/28 04:31:28;;;;;;;6.27;1.93;;;;;;;-2.44;100.00;101554.50;5026482;28;20219;-75
2023/03/28 04:33:55;;;;;;;3.53;1.80;;;;;;;-2.47;100.00;101552.56;5027486;28;20288;-74
2023/03/28 04:36:24;;;;;;;2.80;2.10;;;;;;;-2.51;100.00;101547.91;5032737;28;20195;-75
2023/03/28 04:38:50;;;;;;;3.00;1.73;;;;;;;-2.59;100.00;101544.69;5025330;28;20269;-74
2023/03/28 04:41:17;;;;;;;5.30;2.33;;;;;;;-2.56;100.00;101560.50;5027898;28;20220;-73
2023/03/28 04:43:43;;;;;;;5.20;2.03;;;;;;;-2.59;100.00;101555.03;5032126;28;20244;-73
2023/03/28 04:46:10;;;;;;;4.80;2.50;;;;;;;-2.58;100.00;101561.13;5030677;28;20211;-73
2023/03/28 04:48:36;;;;;;;6.67;2.20;;;;;;;-2.63;100.00;101568.53;5027488;28;20197;-75
2023/03/28 04:51:03;;;;;;;3.23;2.27;;;;;;;-2.67;100.00;101566.47;5030811;28;20223;-74
2023/03/28 04:53:29;;;;;;;3.33;2.07;;;;;;;-2.68;100.00;101572.44;5025696;28;20207;-74
2023/03/28 04:55:55;;;;;;;5.00;2.17;;;;;;;-2.71;100.00;101566.06;5018978;28;20251;-74
2023/03/28 04:58:22;;;;;;;3.57;2.23;;;;;;;-2.73;100.00;101571.13;5023248;28;20200;-74
2023/03/28 05:00:49;;;;;;;3.43;2.10;;;;;;;-2.71;100.00;101577.34;5029169;28;20218;-75
2023/03/28 05:03:18;;;;;;;3.90;2.07;;;;;;;-2.67;100.00;101587.22;5027927;28;20207;-75
2023/03/28 05:05:50;;;;;;;4.20;1.90;;;;;;;-2.60;100.00;101586.03;5027037;28;20210;-73
2023/03/28 05:08:18;;;;;;;5.73;2.40;;;;;;;-2.63;100.00;101585.78;5024301;28;20222;-74
2023/03/28 05:10:45;;;;;;;5.27;2.27;;;;;;;-2.62;100.00;101585.91;5022631;28;20679;-71
2023/03/28 05:13:12;;;;;;;3.30;1.60;;;;;;;-2.62;100.00;101587.59;5026071;28;20230;-71
2023/03/28 05:15:38;;;;;;;3.50;2.33;;;;;;;-2.55;100.00;101600.28;5025196;28;20210;-71
2023/03/28 05:18:05;;;;;;;2.20;1.67;;;;;;;-2.50;100.00;101605.88;5020859;28;20698;-70
2023/03/28 05:20:31;;;;;;;4.63;2.13;;;;;;;-2.47;100.00;101600.94;5027047;28;20196;-71
2023/03/28 05:22:58;;;;;;;3.93;2.30;;;;;;;-2.47;100.00;101606.13;5026678;28;20246;-71
2023/03/28 05:25:24;;;;;;;3.73;2.07;;;;;;;-2.49;100.00;101611.19;5029466;28;20196;-71
2023/03/28 05:27:51;;;;;;;2.80;1.80;;;;;;;-2.47;100.00;101606.13;5029649;28;20208;-71
2023/03/28 05:30:18;;;;;;;3.50;2.17;;;;;;;-2.36;100.00;101613.16;5026491;28;20629;-72
2023/03/28 05:32:44;;;;;;;6.97;2.53;;;;;;;-2.01;100.00;101605.66;5025357;28;20285;-71
2023/03/28 05:35:12;;;;;;;5.77;2.33;;;;;;;-1.93;100.00;101609.84;5028080;28;20286;-71
2023/03/28 05:37:39;;;;;;;6.40;2.40;;;;;;;-1.79;100.00;101606.66;5026039;28;20275;-71
2023/03/28 05:40:10;;;;;;;7.23;2.63;;;;;;;-1.81;100.00;101613.44;5029221;28;20202;-69
2023/03/28 05:42:37;;;;;;;8.70;2.40;;;;;;;-1.58;100.00;101608.44;5027482;28;20243;-69
2023/03/28 05:45:06;;;;;;;4.77;2.13;;;;;;;-1.58;100.00;101613.63;5025232;28;20736;-70
2023/03/28 05:47:33;;;;;;;4.13;2.10;;;;;;;-1.54;100.00;101625.16;5022118;28;20200;-70
2023/03/28 05:50:00;;;;;;;5.40;2.40;;;;;;;-1.49;100.00;101616.06;5025451;28;20220;-69
2023/03/28 05:52:28;;;;;;;6.00;2.23;;;;;;;-1.44;100.00;101621.63;5026829;28;20227;-70
2023/03/28 05:54:57;;;;;;;5.07;2.30;;;;;;;-1.28;100.00;101630.75;5025762;28;20261;-70
2023/03/28 05:57:24;;;;;;;6.17;2.43;;;;;;;-0.92;100.00;101633.56;5027752;28;20250;-70
2023/03/28 05:59:50;;;;;;;5.70;2.57;;;;;;;-0.77;100.00;101635.69;5025967;28;20616;-70
2023/03/28 06:02:19;;;;;;;6.73;3.00;;;;;;;-0.68;100.00;101633.81;5026098;28;20219;-70
2023/03/28 06:04:45;;;;;;;6.13;2.80;;;;;;;-0.75;100.00;101641.00;5026587;28;20197;-70
2023/03/28 06:07:12;;;;;;;5.37;2.80;;;;;;;-0.81;100.00;101630.09;5027694;28;20201;-69
2023/03/28 06:09:39;;;;;;;6.00;2.87;;;;;;;-0.82;100.00;101631.78;5027577;28;20226;-69
2023/03/28 06:12:07;;;;;;;8.30;3.10;;;;;;;-0.49;100.00;101620.50;5027318;28;20715;-69
2023/03/28 06:14:33;;;;;;;7.50;2.50;;;;;;;-0.49;100.00;101633.53;5026545;28;20256;-69
2023/03/28 06:16:59;;;;;;;7.07;2.90;;;;;;;-0.37;100.00;101628.38;5028887;28;20250;-69
2023/03/28 06:19:26;;;;;;;6.00;2.87;;;;;;;-0.08;100.00;101621.06;5025673;28;20207;-69
2023/03/28 06:21:52;;;;;;;9.37;3.20;;;;;;;-0.03;100.00;101631.81;5020667;28;20297;-70
2023/03/28 06:24:19;;;;;;;11.70;3.57;;;;;;;0.17;100.00;101609.88;5029117;28;20209;-69
2023/03/28 06:26:45;;;;;;;8.23;3.07;;;;;;;0.19;100.00;101624.81;5030279;28;20201;-70
2023/03/28 06:29:12;;;;;;;8.03;2.57;;;;;;;0.27;100.00;101622.78;5024722;28;20249;-69
2023/03/28 06:31:38;;;;;;;8.47;2.93;;;;;;;0.52;100.00;101623.81;5028637;28;20307;-69
2023/03/28 06:34:05;;;;;;;10.90;3.53;;;;;;;0.79;100.00;101632.69;5026165;28;20233;-70
2023/03/28 06:36:31;;;;;;;10.47;3.50;;;;;;;0.90;100.00;101628.28;5026576;28;20203;-70
2023/03/28 06:38:57;;;;;;;8.60;4.10;;;;;;;1.00;100.00;101635.06;5023315;28;20215;-70
2023/03/28 06:41:24;;;;;;;6.00;3.73;;;;;;;1.06;99.06;101639.00;5024843;28;20265;-70
2023/03/28 06:43:50;;;;;;;9.07;3.10;;;;;;;1.23;100.00;101627.16;5022492;28;20203;-70
2023/03/28 06:46:17;;;;;;;7.47;2.80;;;;;;;1.53;98.78;101629.28;5026443;28;20613;-70
2023/03/28 06:48:43;;;;;;;5.73;2.80;;;;;;;1.81;96.14;101633.81;5026619;28;20671;-70
2023/03/28 06:51:11;;;;;;;9.10;2.37;;;;;;;2.20;93.68;101627.75;5028436;28;20248;-71
2023/03/28 06:53:38;;;;;;;7.80;2.40;;;;;;;2.20;89.30;101631.25;5026809;28;20218;-70
2023/03/28 06:56:05;;;;;;;3.67;1.87;;;;;;;2.63;88.49;101633.19;5029556;28;20566;-70
2023/03/28 06:58:32;;;;;;;9.17;2.87;;;;;;;3.28;85.44;101631.25;5021793;28;20210;-71
2023/03/28 07:00:59;;;;;;;6.20;2.70;;;;;;;3.77;83.51;101628.19;5023248;28;20279;-70
2023/03/28 07:03:28;;;;;;;10.43;2.03;;;;;;;3.89;80.32;101624.50;5022766;28;20210;-71
2023/03/28 07:05:55;;;;;;;5.50;2.40;;;;;;;4.22;79.39;101637.00;5026665;28;20282;-70
2023/03/28 07:08:22;;;;;;;4.10;2.13;;;;;;;4.35;77.82;101631.63;5023486;28;20209;-71
2023/03/28 07:10:48;;;;;;;4.73;1.90;;;;;;;4.50;77.23;101639.50;5025479;28;20306;-72
2023/03/28 07:13:15;;;;;;;4.67;1.90;;;;;;;5.02;75.91;101635.47;5018891;28;20213;-71
2023/03/28 07:15:41;;;;;;;3.67;2.00;;;;;;;5.43;72.82;101630.69;5021656;28;20207;-70
2023/03/28 07:18:09;;;;;;;7.40;2.40;;;;;;;5.13;72.24;101650.91;5026604;28;20203;-71
2023/03/28 07:20:40;;;;;;;9.20;2.27;;;;;;;4.47;74.93;101646.28;5027089;28;20199;-71
2023/03/28 07:23:07;;;;;;;5.80;1.97;;;;;;;4.90;74.26;101641.78;5026480;28;20211;-71
2023/03/28 07:25:33;;;;;;;5.90;1.90;;;;;;;5.13;71.99;101650.91;5022518;28;20203;-71
2023/03/28 07:28:00;;;;;;;8.23;1.87;;;;;;;5.08;70.79;101647.13;5028888;28;20274;-72
2023/03/28 07:30:26;;;;;;;4.43;1.60;;;;;;;4.43;73.22;101647.84;5020708;28;20242;-71
2023/03/28 07:32:53;;;;;;;6.47;1.53;;;;;;;5.13;72.23;101651.81;5025161;28;20260;-70
2023/03/28 07:35:39;;;;;;;3.40;1.70;;;;;;;4.81;72.05;101654.38;5027704;28;20707;-71
2023/03/28 07:38:06;;;;;;;5.27;1.80;;;;;;;4.75;73.95;101660.16;5027403;28;20579;-72
2023/03/28 07:40:32;;;;;;;8.73;1.80;;;;;;;4.59;73.62;101679.38;5027806;28;20206;-73
2023/03/28 07:42:59;;;;;;;4.13;1.77;;;;;;;4.85;73.48;101672.09;5029543;28;20247;-72
2023/03/28 07:45:25;;;;;;;6.33;1.80;;;;;;;4.45;73.26;101674.16;5024524;28;20624;-72
2023/03/28 07:47:52;;;;;;;3.90;1.83;;;;;;;4.59;76.05;101675.84;5030130;28;20210;-72
2023/03/28 07:50:18;;;;;;;6.90;2.00;;;;;;;4.60;74.76;101675.03;5025364;28;20219;-72
2023/03/28 07:52:45;;;;;;;4.10;1.70;;;;;;;4.64;73.94;101677.03;5022071;28;20733;-72
2023/03/28 07:55:12;;;;;;;8.67;2.57;;;;;;;4.61;73.78;101671.59;5027557;28;20265;-72
2023/03/28 07:57:39;;;;;;;8.63;2.07;;;;;;;4.77;74.37;101676.00;5028253;28;20204;-71
2023/03/28 08:00:11;;;;;;;5.00;1.80;;;;;;;4.85;74.16;101687.84;5028336;28;20196;-72
2023/03/28 08:02:39;;;;;;;6.40;1.63;;;;;;;4.91;73.97;101680.31;5027069;28;20268;-73
2023/03/28 08:05:10;;;;;;;4.73;2.03;;;;;;;4.98;73.58;101685.09;5024334;28;20201;-71
2023/03/28 08:07:36;;;;;;;7.63;2.43;;;;;;;4.77;72.29;101690.00;5019288;28;20198;-73
2023/03/28 08:10:03;;;;;;;3.60;1.80;;;;;;;4.58;73.52;101687.16;5027199;28;20735;-72
2023/03/28 08:12:29;;;;;;;4.37;1.60;;;;;;;4.53;73.72;101693.88;5028674;28;20212;-73
2023/03/28 08:14:55;;;;;;;8.50;1.77;;;;;;;4.56;73.06;101687.06;5020342;28;20206;-71
2023/03/28 08:17:22;;;;;;;3.80;1.60;;;;;;;4.50;73.79;101693.69;5026146;28;20662;-72
2023/03/28 08:19:48;;;;;;;6.23;1.60;;;;;;;4.66;73.07;101694.66;5026499;28;20203;-72
2023/03/28 08:22:16;;;;;;;7.33;1.60;;;;;;;4.81;72.62;101688.50;5025084;28;20258;-72
2023/03/28 08:24:42;;;;;;;6.83;1.70;;;;;;;4.97;73.51;101681.56;5021969;28;20207;-72
2023/03/28 08:27:09;;;;;;;5.87;1.60;;;;;;;5.20;71.25;101682.88;5027525;28;20200;-72
2023/03/28 08:29:35;;;;;;;6.23;1.60;;;;;;;5.21;69.85;101678.53;5028003;28;20208;-72
2023/03/28 08:32:04;;;;;;;5.90;1.67;;;;;;;5.15;70.00;101688.66;5017224;28;20718;-72
2023/03/28 08:34:31;;;;;;;7.10;1.83;;;;;;;5.20;70.69;101676.69;5024497;28;20709;-72
2023/03/28 08:36:58;;;;;;;5.20;1.90;;;;;;;5.59;70.33;101692.00;5019990;28;20687;-72
2023/03/28 08:39:25;;;;;;;6.90;1.60;;;;;;;5.65;68.17;101681.84;5020914;28;20208;-72
2023/03/28 08:42:19;;;;;;;7.13;1.70;;;;;;;5.53;67.36;101683.78;5023781;28;20215;-72
2023/03/28 08:45:12;;;;;;;6.27;1.40;;;;;;;5.69;69.27;101676.75;5023147;28;20211;-71
2023/03/28 08:48:01;;;;;;;8.67;1.40;;;;;;;5.78;66.69;101685.13;5028756;28;20679;-72
2023/03/28 08:50:32;;;;;;;7.20;1.40;;;;;;;5.79;65.16;101689.56;5021758;28;20222;-72
2023/03/28 08:53:00;;;;;;;6.37;1.43;;;;;;;5.89;66.40;101682.28;5027821;28;20227;-72
2023/03/28 08:55:29;;;;;;;6.80;2.00;;;;;;;6.00;66.16;101693.34;5020880;28;20688;-72
2023/03/28 08:57:57;;;;;;;4.13;1.80;;;;;;;6.19;64.79;101690.88;5029056;28;20199;-72
2023/03/28 09:00:36;;;;;;;6.70;1.37;;;;;;;6.51;63.85;101691.63;5027864;28;20445;-72
2023/03/28 09:03:12;;;;;;;5.97;1.43;;;;;;;6.81;63.03;101687.88;5024403;28;20203;-72
2023/03/28 09:06:25;;;;;;;5.10;1.50;;;;;;;7.14;61.46;101685.97;5028887;28;20249;-72
2023/03/28 09:09:07;;;;;;;3.93;1.30;;;;;;;6.85;57.80;101691.56;5006793;28;20202;-72
2023/03/28 09:12:01;;;;;;;4.27;1.50;;;;;;;6.75;58.56;101681.38;5028745;28;20254;-71
2023/03/28 09:14:40;;;;;;;4.37;1.37;;;;;;;6.57;58.45;101681.41;5032540;28;20666;-72
2023/03/28 09:17:21;;;;;;;5.90;1.63;;;;;;;6.48;59.77;101681.84;5027832;28;20238;-72
2023/03/28 09:19:47;;;;;;;5.07;1.60;;;;;;;6.76;60.66;101685.84;5021196;28;20203;-72
2023/03/28 09:22:23;;;;;;;4.43;1.50;;;;;;;6.90;59.75;101684.81;5020436;28;20214;-73
2023/03/28 09:25:15;;;;;;;7.40;1.73;;;;;;;6.89;60.21;101686.53;5010811;28;20258;-73
2023/03/28 09:27:51;;;;;;;5.07;1.60;;;;;;;6.66;58.88;101680.94;5028807;28;20742;-74
2023/03/28 09:30:22;;;;;;;5.13;1.20;;;;;;;6.93;59.72;101681.41;5028584;28;20217;-73
2023/03/28 09:32:51;;;;;;;4.60;1.57;;;;;;;6.95;58.14;101678.03;5027711;28;20648;-72
2023/03/28 09:35:20;;;;;;;3.90;1.37;;;;;;;7.13;56.60;101678.88;5029423;28;20201;-72
2023/03/28 09:37:53;;;;;;;4.83;1.30;;;;;;;7.48;57.45;101683.19;5028248;28;20223;-72
2023/03/28 09:40:22;;;;;;;3.87;1.27;;;;;;;7.45;56.13;101667.25;5027669;28;20197;-72
2023/03/28 09:43:19;;;;;;;5.53;1.57;;;;;;;7.44;57.81;101670.72;5025753;28;20239;-72
2023/03/28 09:45:57;;;;;;;3.27;1.40;;;;;;;7.47;56.31;101669.94;5028373;28;20203;-72
2023/03/28 09:48:35;;;;;;;7.23;1.57;;;;;;;7.64;55.91;101658.47;5026414;28;20202;-73
2023/03/28 09:51:04;;;;;;;5.87;1.80;;;;;;;7.79;56.72;101663.50;5023768;28;20233;-72
2023/03/28 09:53:35;;;;;;;3.83;1.43;;;;;;;7.82;56.91;101664.53;5024631;28;21901;-72
2023/03/28 09:56:10;;;;;;;3.97;1.50;;;;;;;7.68;56.65;101665.66;5029972;28;20202;-73
2023/03/28 09:59:26;;;;;;;4.37;1.40;;;;;;;7.84;55.38;101656.69;5027056;28;20261;-73
2023/03/28 10:01:56;;;;;;;3.97;1.53;;;;;;;8.41;53.91;101655.75;5027396;28;20302;-72
2023/03/28 10:04:25;;;;;;;2.90;1.27;;;;;;;9.02;51.27;101644.13;5025083;28;20289;-71
2023/03/28 10:06:54;;;;;;;3.67;1.80;;;;;;;9.02;50.24;101644.13;5026999;28;20283;-72
2023/03/28 10:09:22;;;;;;;4.07;1.60;;;;;;;9.11;48.13;101649.78;5028173;28;20622;-73
2023/03/28 10:11:53;;;;;;;3.33;1.30;;;;;;;9.08;48.19;101645.28;5025797;28;20277;-73
2023/03/28 10:14:41;;;;;;;3.20;1.40;;;;;;;9.59;47.60;101644.56;5027156;28;20206;-73
2023/03/28 10:17:29;;;;;;;3.83;1.43;;;;;;;9.74;46.96;101645.16;5025505;28;20226;-73
2023/03/28 10:20:14;;;;;;;5.33;1.30;;;;;;;9.80;45.38;101641.84;5027048;28;20661;-73
2023/03/28 10:22:44;;;;;;;3.07;1.10;;;;;;;10.38;42.16;101647.47;5027677;28;20219;-73
2023/03/28 10:25:30;;;;;;;4.77;1.20;;;;;;;10.51;39.29;101652.34;5028708;28;20650;-73
2023/03/28 10:27:59;;;;;;;2.57;0.93;;;;;;;10.84;38.17;101643.72;5028956;28;20197;-73
2023/03/28 10:30:28;;;;;;;3.03;1.00;;;;;;;10.71;39.25;101649.44;5025838;28;20296;-73
2023/03/28 10:33:16;;;;;;;3.43;1.10;;;;;;;10.68;38.39;101644.97;5020839;28;20229;-73
2023/03/28 10:35:57;;;;;;;5.93;1.20;;;;;;;10.61;38.53;101642.97;5021825;28;20216;-73
2023/03/28 10:38:50;;;;;;;3.40;1.03;;;;;;;9.74;40.20;101639.88;5025394;28;20200;-73
2023/03/28 10:41:28;;;;;;;4.00;1.70;;;;;;;9.28;41.89;101634.59;5022814;28;20304;-73
2023/03/28 10:43:55;;;;;;;1.67;1.13;;;;;;;9.35;40.10;101636.63;5026975;28;20632;-73
2023/03/28 10:46:34;;;;;;;2.73;1.27;;;;;;;9.11;41.89;101641.84;5026581;28;20196;-73
2023/03/28 10:49:04;;;;;;;4.23;1.40;;;;;;;9.32;42.02;101640.06;5028402;28;20195;-73
2023/03/28 10:51:32;;;;;;;4.07;1.27;;;;;;;9.73;39.04;101644.25;5027522;28;20229;-74
2023/03/28 10:54:08;;;;;;;3.43;1.10;;;;;;;9.32;39.12;101626.84;5027345;28;20200;-74
2023/03/28 10:56:51;;;;;;;4.37;1.30;;;;;;;9.40;39.64;101627.13;5028286;28;20207;-75
2023/03/28 10:59:26;;;;;;;2.63;1.00;;;;;;;9.88;38.72;101620.09;5019804;28;20278;-73
2023/03/28 11:02:23;;;;;;;2.97;0.97;;;;;;;9.24;35.95;101620.38;5025300;28;20763;-72
2023/03/28 11:05:00;;;;;;;1.57;0.80;;;;;;;9.33;37.02;101622.47;5027389;28;20214;-73
2023/03/28 11:07:46;;;;;;;2.60;0.97;;;;;;;9.94;37.48;101620.31;5026839;28;20199;-74
2023/03/28 11:10:22;;;;;;;4.03;1.10;;;;;;;10.31;38.20;101621.63;5024493;28;20607;-74
2023/03/28 11:12:55;;;;;;;2.90;1.00;;;;;;;10.56;37.19;101613.66;5025012;28;20222;-73
2023/03/28 11:15:36;;;;;;;4.90;1.40;;;;;;;10.84;36.61;101603.97;5020631;28;20204;-73
2023/03/28 11:18:02;;;;;;;2.03;1.10;;;;;;;11.03;35.08;101592.19;5023023;28;20201;-73
2023/03/28 11:21:02;;;;;;;4.83;1.27;;;;;;;11.04;35.17;101586.94;5028846;28;20198;-73
2023/03/28 11:24:09;;;;;;;5.37;1.17;;;;;;;11.11;35.87;101595.97;5003295;28;20205;-73
2023/03/28 11:27:01;;;;;;;1.63;1.10;;;;;;;10.47;34.72;101592.19;5022570;28;20209;-72
2023/03/28 11:29:53;;;;;;;3.10;0.80;;;;;;;10.92;33.94;101589.22;5026248;28;20648;-73
2023/03/28 11:32:38;;;;;;;2.40;0.90;;;;;;;11.10;34.02;101587.09;5017871;28;20321;-73
2023/03/28 11:35:30;;;;;;;2.17;1.00;;;;;;;11.00;34.69;101571.78;5023733;28;20635;-73
2023/03/28 11:38:01;;;;;;;1.60;1.07;;;;;;;11.15;36.00;101584.59;5026511;28;20275;-73
2023/03/28 11:41:01;;;;;;;1.40;0.80;;;;;;;11.56;34.17;101577.84;5016929;28;20208;-73
2023/03/28 11:43:40;;;;;;;2.00;1.10;;;;;;;11.79;33.52;101562.63;5026772;28;20670;-73
2023/03/28 11:46:22;;;;;;;3.73;0.83;;;;;;;11.77;33.38;101564.28;5024032;28;20256;-73
2023/03/28 11:49:10;;;;;;;6.00;1.13;;;;;;;11.36;33.66;101563.13;5024516;28;20207;-73